Terminal Aerodrome Forecast
Issued by NWS Jacksonville, FL

Home | Current Version | Previous Version | Text Only | Print | Product List | Glossary On
Versions: 1 2 3 4 5 6 7 8 9 10 11 12 13 14 15 16 17 18 19 20 21 22 23 24 25 26 27
000
FTUS42 KJAX 302300
TAFJAX
TAF
KJAX 302320Z 0100/0124 04004KT P6SM SCT030 BKN050 BKN200
     FM010300 01002KT P6SM SCT050 SCT250
     FM010900 02003KT 6SM BR SCT025
     FM011300 05005KT P6SM BKN035
     FM011800 08008KT P6SM BKN040=

USA.gov is the U.S. government's official web portal to all federal, state and local government web resources and services.